createdAt,value
2022-10-30T00:04:41.801Z,3.02
2022-10-30T00:15:43.865Z,3.02
2022-10-30T00:26:22.440Z,3.00
2022-10-30T00:37:23.180Z,3.00
2022-10-30T00:48:22.991Z,3.00
2022-10-30T00:59:02.955Z,3.00
2022-10-30T01:10:00.700Z,3.00
2022-10-30T01:20:48.325Z,2.99
2022-10-30T01:31:28.404Z,2.98
2022-10-30T01:42:21.337Z,2.98
2022-10-30T01:53:04.128Z,2.98
2022-10-30T02:04:08.105Z,2.98
2022-10-30T02:15:11.559Z,2.98
2022-10-30T02:26:14.662Z,2.98
2022-10-30T02:37:19.085Z,2.98
2022-10-30T02:48:22.230Z,2.97
2022-10-30T02:59:22.687Z,2.97
2022-10-30T03:10:24.741Z,2.97
2022-10-30T03:21:26.093Z,2.97
2022-10-30T03:32:28.582Z,2.97
2022-10-30T03:43:33.876Z,2.96
2022-10-30T03:54:35.314Z,2.96
2022-10-30T04:05:38.664Z,2.96
2022-10-30T04:16:38.292Z,2.96
2022-10-30T04:27:22.244Z,2.95
2022-10-30T04:38:29.435Z,2.95
2022-10-30T04:49:15.117Z,2.94
2022-10-30T05:00:25.466Z,2.94
2022-10-30T05:11:32.764Z,2.94
2022-10-30T05:22:44.695Z,2.94
2022-10-30T05:33:51.896Z,2.94
2022-10-30T05:45:05.461Z,2.94
2022-10-30T05:56:09.793Z,2.94
2022-10-30T06:07:10.767Z,2.94
2022-10-30T06:18:11.696Z,2.95
2022-10-30T06:29:11.057Z,2.96
2022-10-30T06:40:14.066Z,2.98
2022-10-30T06:51:14.315Z,2.99
2022-10-30T07:02:12.849Z,2.99
2022-10-30T07:13:08.547Z,3.01
2022-10-30T07:24:12.183Z,3.02
2022-10-30T07:35:05.900Z,3.03
2022-10-30T07:46:00.760Z,3.05
2022-10-30T07:57:01.564Z,3.06
2022-10-30T08:07:57.581Z,3.08
2022-10-30T08:18:58.619Z,3.09
2022-10-30T08:29:49.244Z,3.10
2022-10-30T08:40:29.317Z,3.11
2022-10-30T08:51:07.621Z,3.13
2022-10-30T09:01:46.832Z,3.14
2022-10-30T09:12:40.941Z,3.16
2022-10-30T09:23:18.178Z,3.18
2022-10-30T09:34:08.086Z,3.20
2022-10-30T09:45:30.659Z,3.22
2022-10-30T09:56:09.736Z,3.25
2022-10-30T10:07:09.354Z,3.26
2022-10-30T10:18:10.310Z,3.29
2022-10-30T10:29:07.058Z,3.30
2022-10-30T10:40:07.644Z,3.40
2022-10-30T10:51:14.667Z,3.31
2022-10-30T11:02:12.959Z,3.32
2022-10-30T11:13:01.083Z,3.33
2022-10-30T11:23:59.022Z,3.32
2022-10-30T11:34:46.173Z,3.34
2022-10-30T11:45:44.151Z,3.37
2022-10-30T11:56:39.013Z,3.37
2022-10-30T12:07:35.193Z,3.36
2022-10-30T12:18:34.597Z,3.36
2022-10-30T12:30:02.786Z,3.36
2022-10-30T12:40:33.447Z,3.34
2022-10-30T12:51:30.693Z,3.36
2022-10-30T13:02:04.085Z,3.35
2022-10-30T13:13:03.700Z,3.35
2022-10-30T13:23:36.523Z,3.34
2022-10-30T13:34:28.789Z,3.34
2022-10-30T13:45:20.053Z,3.34
2022-10-30T13:56:16.761Z,3.34
2022-10-30T14:07:09.902Z,3.34
2022-10-30T14:17:59.558Z,3.34
2022-10-30T14:28:48.508Z,3.34
2022-10-30T14:39:21.782Z,3.39
2022-10-30T14:49:54.293Z,3.37
2022-10-30T15:00:52.073Z,3.37
2022-10-30T15:11:49.592Z,3.36
2022-10-30T15:22:48.629Z,3.35
2022-10-30T15:33:44.759Z,3.33
2022-10-30T15:44:38.688Z,3.30
2022-10-30T15:55:30.050Z,3.29
2022-10-30T16:06:04.877Z,3.28
2022-10-30T16:16:47.203Z,3.26
2022-10-30T16:27:21.343Z,3.25
2022-10-30T16:38:13.108Z,3.24
2022-10-30T16:48:48.605Z,3.23
2022-10-30T16:59:26.485Z,3.21
2022-10-30T17:10:19.773Z,3.21
2022-10-30T17:20:55.463Z,3.19
2022-10-30T17:31:49.434Z,3.19
2022-10-30T17:42:24.955Z,3.17
2022-10-30T17:53:08.872Z,3.17
2022-10-30T18:03:58.941Z,3.17
2022-10-30T18:14:44.669Z,3.15
2022-10-30T18:25:22.620Z,3.15
2022-10-30T18:36:05.835Z,3.14
2022-10-30T18:46:48.377Z,3.13
2022-10-30T18:57:35.439Z,3.13
2022-10-30T19:08:32.406Z,3.13
2022-10-30T19:19:31.961Z,3.12
2022-10-30T19:30:27.051Z,3.12
2022-10-30T19:41:27.800Z,3.12
2022-10-30T19:52:29.445Z,3.11
2022-10-30T20:03:29.314Z,3.11
2022-10-30T20:14:29.805Z,3.11
2022-10-30T20:25:31.924Z,3.10
2022-10-30T20:36:08.510Z,3.09
2022-10-30T20:47:08.762Z,3.09
2022-10-30T20:58:09.533Z,3.09
2022-10-30T21:09:09.431Z,3.08
2022-10-30T21:20:08.918Z,3.08
2022-10-30T21:30:45.942Z,3.06
2022-10-30T21:41:46.488Z,3.06
2022-10-30T21:52:24.389Z,3.05
2022-10-30T22:03:19.504Z,3.05
2022-10-30T22:14:20.476Z,3.04
2022-10-30T22:25:18.080Z,3.04
2022-10-30T22:36:19.673Z,3.04
2022-10-30T22:47:21.530Z,3.04
2022-10-30T22:58:16.130Z,3.03
2022-10-30T23:09:15.592Z,3.03
2022-10-30T23:20:11.630Z,3.03
2022-10-30T23:31:22.121Z,2.99
2022-10-30T23:42:19.732Z,3.02
2022-10-30T23:52:59.135Z,3.00
